Newport, AR

5:53 PM CST on February 06, 2016 (GMT -0600)
Newport | | Change Station
CLOSE
Current Station
Airport
Location: Newport,
Elevation: 240 ft
Nearby Weather Stations

Elev 240 ft 35.64 °N, 91.17 °W | Updated 57 minutes ago

Mostly Cloudy
Mostly Cloudy
52 °F
Feels Like 52 °F
N
6
Wind Variable Wind from South

Today
High -- | Low -- °F
--% Chance of Precip.
Yesterday
High -- | Low -- °F
Precip. -- in
Pressure 30.32 in
Visibility 10.0 miles
Clouds Clear
Dew Point 22 °F
Humidity 31%
Rainfall 0.00 in
Snow Depth Not available.
7:00 AM 5:37 PM
Waning Crescent, 3% visible
METAR KM19 062256Z AUTO 18005KT 10SM CLR 11/M06 A3031 RMK AO2 T01111055 SLP266
Pressure 30.32 in
Visibility 10.0 miles
Clouds Clear
Dew Point 22 °F
Humidity 31%
Rainfall 0.00 in
Snow Depth Not available.
7:00 AM 5:37 PM
Waning Crescent, 3% visible
METAR KM19 062256Z AUTO 18005KT 10SM CLR 11/M06 A3031 RMK AO2 T01111055 SLP266

10-Day Weather Forecast

Almanac

Astronomy

Feb. 06, 2016 Rise Set
Actual Time
Civil Twilight
Nautical Twilight
Astronomical Twilight
Moon
Length of Visible Light
Length of Day
Tomorrow will be .
, % of the Moon is Illuminated

Today's Extremes

State Highs State Lows

Community

WunderPhotos

Upload Photos

1,891,098 photos uploaded!

WunderBlog® & News

Nearby

Air Quality

  Air Quality AQ Index Pollutant
Not available.

Snow Depth

Station Depth Elevation

Earthquake Activity

City Distance Mag. Time & Date
Minimum magnitude displayed is 2.5.

Coastal Water Temperatures

Place Temperature

Stations

Nearby Weather Stations

Station Location Temp. Windchill Dew Point Humidity Wind Precip. Elev Updated Type
                   

Watches & Warnings

There are currently no watches in effect.